Time;durP1;ratioP1;P1;durP2;ratioP2;P2;SDS_P1;SDS_P2;PMS_P1;PMS_P2;Temp;Humidity;BMP_temperature;BMP_pressure;BME280_temperature;BME280_humidity;BME280_pressure;Samples;Min_cycle;Max_cycle;Signal;HPM_P1;HPM_P2
2023/05/28 00:00:33;;;;;;;28.27;17.45;;;13.60;82.90;;;;;;5020726;28;20034;-78
2023/05/28 00:02:59;;;;;;;30.08;18.35;;;13.60;82.90;;;;;;5022171;28;20029;-78
2023/05/28 00:05:25;;;;;;;29.13;18.20;;;13.60;82.90;;;;;;5023450;28;20369;-79
2023/05/28 00:07:51;;;;;;;30.27;18.30;;;13.50;83.00;;;;;;5023915;28;20469;-78
2023/05/28 00:10:16;;;;;;;31.10;17.77;;;13.60;83.20;;;;;;5023851;28;20384;-78
2023/05/28 00:12:43;;;;;;;32.10;19.10;;;13.60;83.30;;;;;;5024723;28;20034;-78
2023/05/28 00:15:09;;;;;;;34.95;19.00;;;13.50;83.40;;;;;;5036916;28;20022;-78
2023/05/28 00:17:35;;;;;;;30.65;19.00;;;13.50;83.50;;;;;;5030819;28;20034;-79
2023/05/28 00:20:01;;;;;;;32.20;19.52;;;13.40;83.70;;;;;;5032636;28;20025;-79
2023/05/28 00:22:26;;;;;;;38.47;20.67;;;13.40;83.90;;;;;;5022205;28;20401;-78
2023/05/28 00:24:52;;;;;;;36.72;21.08;;;13.30;84.40;;;;;;5026859;28;20490;-78
2023/05/28 00:27:18;;;;;;;36.65;21.15;;;13.30;84.50;;;;;;5017476;28;20113;-79
2023/05/28 00:29:43;;;;;;;34.00;21.48;;;13.20;84.80;;;;;;5024779;28;20405;-79
2023/05/28 00:32:09;;;;;;;38.33;23.10;;;13.10;85.10;;;;;;5026036;28;20040;-78
2023/05/28 00:34:35;;;;;;;39.05;24.05;;;13.10;85.40;;;;;;5023492;28;20484;-78
2023/05/28 00:37:01;;;;;;;36.55;22.73;;;13.10;85.70;;;;;;5023887;28;20041;-78
2023/05/28 00:39:26;;;;;;;41.63;23.83;;;13.10;85.80;;;;;;5027841;28;20029;-78
2023/05/28 00:42:03;;;;;;;45.55;24.20;;;13.10;85.90;;;;;;5022613;28;20059;-78
2023/05/28 00:44:31;;;;;;;46.40;25.42;;;13.10;86.10;;;;;;5024523;28;20403;-77
2023/05/28 00:46:57;;;;;;;38.83;23.63;;;13.10;86.10;;;;;;5022695;28;20040;-77
2023/05/28 00:49:23;;;;;;;42.15;24.48;;;13.00;86.10;;;;;;5022455;28;20022;-78
2023/05/28 00:51:48;;;;;;;41.00;24.35;;;13.10;86.20;;;;;;5020395;28;20541;-77
2023/05/28 00:54:15;;;;;;;39.83;25.17;;;13.00;86.30;;;;;;5016340;28;20044;-77
2023/05/28 00:56:43;;;;;;;43.80;25.33;;;12.90;86.50;;;;;;5020112;28;20041;-77
2023/05/28 00:59:09;;;;;;;42.17;25.40;;;12.90;86.70;;;;;;5023122;28;20430;-79
2023/05/28 01:01:36;;;;;;;44.08;26.38;;;12.90;86.60;;;;;;5020016;28;20375;-79
2023/05/28 01:04:02;;;;;;;44.70;25.70;;;12.90;86.70;;;;;;5021238;28;20021;-79
2023/05/28 01:06:29;;;;;;;43.83;25.40;;;12.90;86.80;;;;;;5019161;28;20045;-79
2023/05/28 01:08:55;;;;;;;42.33;24.42;;;12.90;86.90;;;;;;5027108;28;20029;-79
2023/05/28 01:11:21;;;;;;;39.90;25.17;;;12.90;86.80;;;;;;5025377;28;20375;-79
2023/05/28 01:13:47;;;;;;;43.80;25.27;;;12.90;86.70;;;;;;5026211;28;20044;-79
2023/05/28 01:16:14;;;;;;;41.17;25.85;;;12.90;86.70;;;;;;5027251;28;20577;-80
2023/05/28 01:18:41;;;;;;;46.65;25.55;;;12.90;86.60;;;;;;5042655;28;20052;-79
2023/05/28 01:21:08;;;;;;;39.70;25.75;;;12.80;86.50;;;;;;5046562;28;20044;-79
2023/05/28 01:23:45;;;;;;;42.60;25.67;;;12.80;86.90;;;;;;5044329;28;20024;-79
2023/05/28 01:26:13;;;;;;;38.75;24.30;;;12.80;86.90;;;;;;5028161;28;20045;-80
2023/05/28 01:28:44;;;;;;;39.13;24.23;;;12.80;87.10;;;;;;5025058;28;20036;-78
2023/05/28 01:31:10;;;;;;;46.78;26.48;;;12.80;87.20;;;;;;5025134;28;20045;-78
2023/05/28 01:33:36;;;;;;;45.42;25.65;;;12.80;87.40;;;;;;5025728;28;20021;-78
2023/05/28 01:36:07;;;;;;;43.08;26.15;;;12.70;87.50;;;;;;5022211;28;20034;-78
2023/05/28 01:38:35;;;;;;;48.72;26.75;;;12.70;87.60;;;;;;5016985;28;20064;-78
2023/05/28 01:41:02;;;;;;;45.40;27.25;;;12.70;87.70;;;;;;5021219;28;20481;-77
2023/05/28 01:43:28;;;;;;;47.17;28.27;;;12.70;87.70;;;;;;5017733;28;20052;-78
2023/05/28 01:45:54;;;;;;;45.78;26.63;;;12.70;87.90;;;;;;5021890;28;20029;-78
2023/05/28 01:48:20;;;;;;;43.88;26.60;;;12.70;88.00;;;;;;5024781;28;20131;-78
2023/05/28 01:50:46;;;;;;;43.38;25.85;;;12.60;88.20;;;;;;5022293;28;20038;-78
2023/05/28 01:53:12;;;;;;;47.75;26.58;;;12.60;88.20;;;;;;5023849;28;20398;-78
2023/05/28 01:55:38;;;;;;;44.05;26.88;;;12.60;88.20;;;;;;5023702;28;20033;-77
2023/05/28 01:58:04;;;;;;;43.53;26.58;;;12.60;88.10;;;;;;5024383;28;20148;-78
2023/05/28 02:00:31;;;;;;;43.97;26.70;;;12.60;88.20;;;;;;5024480;28;20576;-78
2023/05/28 02:02:57;;;;;;;44.60;27.88;;;12.70;88.30;;;;;;5021004;28;20461;-77
2023/05/28 02:05:22;;;;;;;44.22;27.13;;;12.60;88.30;;;;;;5021028;28;20036;-77
2023/05/28 02:07:48;;;;;;;43.15;25.67;;;12.60;88.30;;;;;;5023974;28;20171;-77
2023/05/28 02:10:14;;;;;;;43.60;27.67;;;12.70;88.20;;;;;;5022458;28;20029;-78
2023/05/28 02:12:40;;;;;;;50.00;29.08;;;12.60;88.10;;;;;;5025488;28;20072;-78
2023/05/28 02:15:06;;;;;;;50.63;28.20;;;12.60;88.20;;;;;;5024175;28;20030;-79
2023/05/28 02:17:32;;;;;;;43.83;26.85;;;12.60;88.40;;;;;;5033991;28;20521;-78
2023/05/28 02:19:58;;;;;;;51.00;28.70;;;12.60;88.40;;;;;;5028343;28;20032;-78
2023/05/28 02:22:24;;;;;;;39.47;27.00;;;12.60;88.70;;;;;;5030442;28;21209;-78
2023/05/28 02:24:49;;;;;;;48.95;28.08;;;12.60;88.60;;;;;;5030452;28;20030;-79
2023/05/28 02:27:16;;;;;;;42.83;26.95;;;12.60;88.60;;;;;;5029201;28;20120;-79
2023/05/28 02:29:43;;;;;;;45.42;29.15;;;12.60;88.70;;;;;;5025758;28;20040;-78
2023/05/28 02:32:08;;;;;;;47.95;29.23;;;12.60;88.80;;;;;;5016532;28;20049;-78
2023/05/28 02:34:34;;;;;;;46.47;29.05;;;12.50;88.80;;;;;;5020453;28;20032;-78
2023/05/28 02:37:01;;;;;;;44.22;28.33;;;12.60;88.90;;;;;;5023476;28;20037;-78
2023/05/28 02:39:26;;;;;;;44.00;29.77;;;12.60;89.00;;;;;;5024943;28;20021;-78
2023/05/28 02:41:52;;;;;;;46.25;29.80;;;12.60;89.10;;;;;;5022251;28;20059;-78
2023/05/28 02:44:18;;;;;;;49.53;30.33;;;12.60;89.00;;;;;;5020366;28;20033;-78
2023/05/28 02:46:44;;;;;;;48.55;30.25;;;12.50;88.90;;;;;;5023044;28;20049;-78
2023/05/28 02:49:10;;;;;;;47.40;29.38;;;12.60;89.00;;;;;;5019365;28;20034;-77
2023/05/28 02:51:35;;;;;;;52.42;31.17;;;12.60;89.20;;;;;;5024096;28;20037;-78
2023/05/28 02:54:01;;;;;;;51.65;31.33;;;12.50;89.30;;;;;;5023143;28;20037;-78
2023/05/28 02:56:27;;;;;;;50.20;30.45;;;12.60;89.50;;;;;;5022962;28;20168;-78
2023/05/28 02:58:53;;;;;;;52.60;31.85;;;12.50;89.30;;;;;;5025614;28;20037;-78
2023/05/28 03:01:18;;;;;;;50.35;30.30;;;12.50;89.30;;;;;;5024341;28;20037;-78
2023/05/28 03:03:44;;;;;;;54.05;30.05;;;12.50;89.30;;;;;;5023649;28;20036;-78
2023/05/28 03:06:10;;;;;;;46.90;30.80;;;12.50;89.40;;;;;;5023174;28;20032;-78
2023/05/28 03:08:36;;;;;;;53.30;30.73;;;12.50;89.60;;;;;;5022191;28;20478;-77
2023/05/28 03:11:02;;;;;;;54.97;31.10;;;12.40;89.90;;;;;;5022853;28;20029;-78
2023/05/28 03:13:27;;;;;;;51.47;30.40;;;12.50;89.90;;;;;;5021168;28;20104;-79
2023/05/28 03:15:53;;;;;;;49.92;30.55;;;12.50;89.70;;;;;;5022803;28;20055;-79
2023/05/28 03:18:20;;;;;;;49.38;29.85;;;12.40;89.60;;;;;;5020154;28;20093;-78
2023/05/28 03:20:45;;;;;;;57.58;30.65;;;12.40;89.70;;;;;;5022164;28;20086;-79
2023/05/28 03:23:11;;;;;;;51.58;29.63;;;12.40;89.70;;;;;;5021893;28;20360;-78
2023/05/28 03:25:37;;;;;;;45.17;30.20;;;12.30;89.70;;;;;;5022598;28;20029;-79
2023/05/28 03:28:02;;;;;;;44.70;29.45;;;12.30;89.70;;;;;;5020318;28;20390;-78
2023/05/28 03:30:28;;;;;;;51.03;29.77;;;12.30;89.70;;;;;;5020993;28;20543;-78
2023/05/28 03:32:54;;;;;;;51.90;29.42;;;12.20;89.60;;;;;;5019338;28;20036;-78
2023/05/28 03:35:19;;;;;;;53.88;29.77;;;12.20;89.60;;;;;;5020477;28;20037;-78
2023/05/28 03:37:45;;;;;;;45.50;28.92;;;12.20;89.60;;;;;;5018084;28;20061;-78
2023/05/28 03:40:11;;;;;;;47.70;30.50;;;12.20;89.60;;;;;;5026237;28;20029;-78
2023/05/28 03:42:38;;;;;;;46.33;29.33;;;12.20;89.70;;;;;;5022659;28;20446;-78
2023/05/28 03:45:04;;;;;;;48.75;29.58;;;12.20;89.60;;;;;;5022134;28;20052;-79
2023/05/28 03:47:31;;;;;;;47.47;29.83;;;12.10;89.30;;;;;;5022654;28;20034;-78
2023/05/28 03:49:58;;;;;;;47.88;29.77;;;12.10;89.20;;;;;;5014693;28;20036;-78
2023/05/28 03:52:24;;;;;;;44.67;30.70;;;12.20;89.30;;;;;;5021581;28;20064;-78
2023/05/28 03:54:50;;;;;;;48.28;29.45;;;12.10;89.30;;;;;;5022135;28;20492;-78
2023/05/28 03:57:16;;;;;;;46.85;28.90;;;12.20;89.40;;;;;;5022966;28;20041;-78
2023/05/28 03:59:41;;;;;;;46.33;29.13;;;12.10;89.40;;;;;;5020978;28;20146;-78
2023/05/28 04:02:07;;;;;;;47.03;30.13;;;12.20;89.30;;;;;;5022665;28;20036;-78
2023/05/28 04:04:33;;;;;;;57.40;31.42;;;12.20;89.30;;;;;;5021473;28;20933;-78
2023/05/28 04:06:58;;;;;;;56.15;31.40;;;12.30;89.60;;;;;;5019384;28;20037;-78
2023/05/28 04:09:24;;;;;;;50.08;30.77;;;12.30;89.80;;;;;;5023354;28;20377;-78
2023/05/28 04:11:50;;;;;;;51.20;31.77;;;12.40;90.00;;;;;;5018653;28;20061;-79
2023/05/28 04:14:16;;;;;;;54.00;32.15;;;12.40;90.00;;;;;;5017703;28;20029;-77
2023/05/28 04:16:41;;;;;;;55.63;31.35;;;12.40;90.00;;;;;;5016631;28;20037;-78
2023/05/28 04:19:08;;;;;;;48.83;30.70;;;12.50;90.00;;;;;;5019442;28;20025;-78
2023/05/28 04:21:33;;;;;;;45.20;31.95;;;12.60;90.10;;;;;;5019828;28;20042;-78
2023/05/28 04:23:59;;;;;;;55.53;33.00;;;12.60;90.10;;;;;;5022136;28;20028;-78
2023/05/28 04:26:24;;;;;;;56.33;33.55;;;12.60;90.10;;;;;;5020779;28;20037;-78
2023/05/28 04:28:52;;;;;;;52.17;32.88;;;12.60;90.00;;;;;;5021680;28;20026;-79
2023/05/28 04:31:18;;;;;;;54.03;32.90;;;12.70;90.10;;;;;;5019550;28;20042;-78
2023/05/28 04:33:47;;;;;;;52.58;32.38;;;12.80;89.90;;;;;;5024351;28;20071;-78
2023/05/28 04:36:13;;;;;;;51.25;33.55;;;12.80;90.00;;;;;;5022831;28;20045;-78
2023/05/28 04:38:39;;;;;;;52.50;30.23;;;12.90;89.90;;;;;;5016560;28;20410;-78
2023/05/28 04:41:05;;;;;;;55.22;32.95;;;13.00;89.90;;;;;;5021451;28;20034;-78
2023/05/28 04:43:33;;;;;;;55.97;33.15;;;13.10;89.70;;;;;;5014970;28;20029;-78
2023/05/28 04:45:58;;;;;;;53.97;32.58;;;13.10;89.60;;;;;;5020405;28;20061;-78
2023/05/28 04:48:27;;;;;;;55.72;32.78;;;13.10;89.50;;;;;;5020403;28;20757;-79
2023/05/28 04:50:53;;;;;;;50.92;31.55;;;13.10;89.30;;;;;;5018765;28;20030;-78
2023/05/28 04:53:20;;;;;;;52.17;32.28;;;13.20;89.60;;;;;;5021737;28;20029;-78
2023/05/28 04:55:46;;;;;;;54.72;31.05;;;13.30;89.40;;;;;;5012377;28;20382;-78
2023/05/28 04:58:11;;;;;;;55.03;31.30;;;13.40;89.30;;;;;;5018435;28;20029;-78
2023/05/28 05:00:37;;;;;;;54.92;31.45;;;13.50;88.90;;;;;;5014600;28;20025;-78
2023/05/28 05:03:03;;;;;;;49.63;30.13;;;13.50;88.90;;;;;;5024093;28;20037;-78
2023/05/28 05:05:29;;;;;;;51.30;30.30;;;13.50;89.10;;;;;;5024614;28;20172;-78
2023/05/28 05:07:54;;;;;;;51.42;30.83;;;13.60;89.10;;;;;;5017177;28;20029;-78
2023/05/28 05:10:20;;;;;;;50.08;30.50;;;13.60;88.90;;;;;;5022234;28;20429;-78
2023/05/28 05:12:46;;;;;;;50.90;30.80;;;13.80;88.90;;;;;;5025629;28;20544;-78
2023/05/28 05:15:12;;;;;;;48.75;29.35;;;13.80;88.70;;;;;;5021731;28;20044;-78
2023/05/28 05:17:37;;;;;;;48.33;28.88;;;14.10;88.70;;;;;;5018997;28;20061;-79
2023/05/28 05:20:07;;;;;;;40.55;27.95;;;14.60;88.10;;;;;;5025135;28;20420;-78
2023/05/28 05:22:33;;;;;;;44.22;26.25;;;15.50;86.50;;;;;;5016445;28;20091;-78
2023/05/28 05:24:58;;;;;;;42.25;26.40;;;16.50;82.90;;;;;;5022913;28;20029;-79
2023/05/28 05:27:24;;;;;;;41.95;24.35;;;17.10;78.80;;;;;;5016571;28;20036;-78
2023/05/28 05:29:49;;;;;;;37.33;24.60;;;17.30;77.20;;;;;;5026219;28;20026;-78
2023/05/28 05:32:15;;;;;;;36.13;23.80;;;17.50;76.90;;;;;;5023389;28;20744;-78
2023/05/28 05:34:41;;;;;;;35.78;23.25;;;17.90;75.10;;;;;;5022693;28;20449;-78
2023/05/28 05:37:06;;;;;;;37.38;23.20;;;18.30;74.10;;;;;;5018959;28;20057;-79
2023/05/28 05:39:32;;;;;;;41.50;23.55;;;18.60;72.80;;;;;;5031173;28;20044;-79
2023/05/28 05:41:59;;;;;;;37.28;23.55;;;18.80;71.10;;;;;;5040952;28;20045;-78
2023/05/28 05:44:24;;;;;;;36.53;23.02;;;18.60;71.70;;;;;;5040934;28;20030;-78
2023/05/28 05:46:50;;;;;;;38.90;22.65;;;18.80;71.50;;;;;;5022184;28;20050;-79
2023/05/28 05:49:16;;;;;;;39.65;23.38;;;18.60;72.00;;;;;;5025112;28;20513;-78
2023/05/28 05:51:41;;;;;;;39.72;23.30;;;18.60;71.70;;;;;;5026104;28;20789;-78
2023/05/28 05:54:07;;;;;;;42.38;24.92;;;18.20;71.90;;;;;;5045858;28;20067;-78
2023/05/28 05:56:33;;;;;;;36.53;23.77;;;17.60;75.00;;;;;;5048624;28;20041;-78
2023/05/28 05:58:59;;;;;;;42.60;24.50;;;17.20;76.10;;;;;;5041123;28;20036;-78
2023/05/28 06:01:25;;;;;;;43.72;26.10;;;16.60;78.60;;;;;;5023418;28;20029;-78
2023/05/28 06:03:50;;;;;;;41.22;25.55;;;16.10;80.40;;;;;;5019533;28;20108;-78
2023/05/28 06:06:16;;;;;;;39.47;26.10;;;16.00;82.10;;;;;;5017184;28;20046;-78
2023/05/28 06:08:42;;;;;;;45.08;25.25;;;16.00;82.20;;;;;;5022229;28;20030;-78
2023/05/28 06:11:09;;;;;;;43.15;25.83;;;15.80;82.80;;;;;;5019055;28;20026;-78
2023/05/28 06:13:35;;;;;;;46.13;26.05;;;15.90;83.00;;;;;;5018287;28;20378;-78
2023/05/28 06:16:02;;;;;;;44.65;26.25;;;16.00;83.00;;;;;;5023882;28;20083;-79
2023/05/28 06:18:29;;;;;;;45.72;26.65;;;16.10;82.70;;;;;;5022314;28;20087;-78
2023/05/28 06:20:55;;;;;;;44.92;26.35;;;16.20;82.40;;;;;;5019779;28;20030;-78
2023/05/28 06:23:21;;;;;;;42.50;25.55;;;16.20;82.20;;;;;;5019690;28;20185;-78
2023/05/28 06:25:47;;;;;;;38.72;24.42;;;16.40;81.60;;;;;;5019601;28;20033;-78
2023/05/28 06:28:13;;;;;;;39.35;24.15;;;16.40;80.90;;;;;;5023653;28;20436;-78
2023/05/28 06:30:40;;;;;;;40.47;24.92;;;16.40;82.00;;;;;;5020207;28;20087;-78
2023/05/28 06:33:05;;;;;;;45.05;26.38;;;16.50;82.60;;;;;;5021794;28;20129;-78
2023/05/28 06:35:31;;;;;;;42.95;25.40;;;16.60;80.90;;;;;;5022237;28;20037;-78
2023/05/28 06:37:57;;;;;;;42.55;24.48;;;16.60;80.30;;;;;;5022903;28;20152;-77
2023/05/28 06:40:23;;;;;;;39.40;23.83;;;16.80;80.80;;;;;;5024014;28;20450;-78
2023/05/28 06:42:49;;;;;;;43.28;25.92;;;17.00;79.70;;;;;;5017119;28;20499;-78
2023/05/28 06:45:15;;;;;;;38.20;24.35;;;17.10;79.20;;;;;;5020000;28;20033;-78
2023/05/28 06:47:40;;;;;;;38.75;24.02;;;17.10;78.90;;;;;;5023031;28;20501;-78
2023/05/28 06:50:06;;;;;;;42.78;24.75;;;17.30;79.10;;;;;;5024236;28;20033;-78
2023/05/28 06:52:32;;;;;;;42.45;25.25;;;17.50;78.00;;;;;;5019581;28;20044;-77
2023/05/28 06:54:58;;;;;;;34.75;23.58;;;17.60;78.10;;;;;;5018207;28;20038;-78
2023/05/28 06:57:23;;;;;;;37.47;23.80;;;17.60;76.50;;;;;;5018707;28;20033;-78
2023/05/28 06:59:49;;;;;;;41.95;24.40;;;17.60;77.20;;;;;;5019585;28;20035;-79
2023/05/28 07:02:15;;;;;;;42.45;24.60;;;17.80;76.60;;;;;;5020856;28;20576;-78
2023/05/28 07:04:40;;;;;;;44.42;24.05;;;17.90;75.20;;;;;;5021914;28;20050;-78
2023/05/28 07:07:06;;;;;;;36.53;23.83;;;18.10;75.00;;;;;;5022641;28;20121;-75
2023/05/28 07:09:32;;;;;;;41.58;22.30;;;18.20;74.20;;;;;;5020682;28;20586;-77
2023/05/28 07:11:58;;;;;;;38.65;22.95;;;18.30;73.90;;;;;;5021023;28;20572;-76
2023/05/28 07:14:23;;;;;;;38.17;21.75;;;18.40;74.30;;;;;;5019259;28;20322;-80
2023/05/28 07:16:49;;;;;;;35.40;21.88;;;18.60;73.50;;;;;;5019014;28;20121;-76
2023/05/28 07:19:15;;;;;;;32.20;20.55;;;18.70;73.00;;;;;;5019160;28;20045;-82
2023/05/28 07:21:41;;;;;;;36.83;20.55;;;18.70;71.60;;;;;;5015682;28;20629;-76
2023/05/28 07:24:06;;;;;;;32.13;19.13;;;18.60;70.60;;;;;;5016628;28;20022;-76
2023/05/28 07:26:35;;;;;;;30.33;19.05;;;18.60;71.70;;;;;;5015322;28;20057;-77
2023/05/28 07:29:01;;;;;;;33.60;20.30;;;18.70;71.00;;;;;;5020662;28;20041;-77
2023/05/28 07:31:28;;;;;;;32.35;19.00;;;18.70;70.20;;;;;;5021706;28;20037;-78
2023/05/28 07:33:53;;;;;;;36.15;20.45;;;18.80;70.20;;;;;;5017520;28;20485;-78
2023/05/28 07:36:19;;;;;;;35.80;21.98;;;19.00;69.70;;;;;;5017005;28;20045;-78
2023/05/28 07:38:45;;;;;;;28.90;18.52;;;18.90;70.40;;;;;;5016763;28;20029;-80
2023/05/28 07:41:11;;;;;;;32.85;20.45;;;19.00;68.60;;;;;;5022607;28;20519;-81
2023/05/28 07:43:37;;;;;;;30.88;18.38;;;19.20;69.40;;;;;;5013450;28;21061;-78
2023/05/28 07:46:03;;;;;;;30.67;18.50;;;19.50;68.70;;;;;;5018972;28;20167;-76
2023/05/28 07:48:29;;;;;;;32.08;18.83;;;19.50;66.90;;;;;;5022829;28;20156;-78
2023/05/28 07:50:55;;;;;;;30.95;20.52;;;19.60;68.00;;;;;;5023692;28;20593;-78
2023/05/28 07:53:21;;;;;;;35.75;20.15;;;19.70;68.00;;;;;;5022974;28;20029;-76
2023/05/28 07:55:46;;;;;;;31.38;19.23;;;19.50;67.40;;;;;;5020433;28;20470;-77
2023/05/28 07:58:12;;;;;;;31.05;19.90;;;19.60;67.60;;;;;;5025359;28;20032;-77
2023/05/28 08:00:39;;;;;;;32.53;19.08;;;19.90;66.70;;;;;;5016767;28;20030;-76
2023/05/28 08:03:05;;;;;;;30.52;18.40;;;20.20;66.20;;;;;;5020656;28;20398;-81
2023/05/28 08:05:31;;;;;;;32.47;19.90;;;20.20;65.50;;;;;;5023673;28;20668;-77
2023/05/28 08:07:57;;;;;;;32.15;17.80;;;20.20;65.10;;;;;;5024816;28;20034;-79
2023/05/28 08:10:23;;;;;;;27.63;17.83;;;20.30;64.60;;;;;;5019317;28;20025;-77
2023/05/28 08:12:49;;;;;;;27.90;17.05;;;20.20;64.10;;;;;;5016777;28;20045;-76
2023/05/28 08:15:15;;;;;;;26.20;16.08;;;20.10;65.00;;;;;;5020685;28;20041;-77
2023/05/28 08:17:40;;;;;;;27.35;16.60;;;20.30;63.20;;;;;;5020569;28;20396;-76
2023/05/28 08:20:11;;;;;;;29.88;16.42;;;20.40;63.40;;;;;;5019114;28;20040;-81
2023/05/28 08:22:37;;;;;;;28.13;16.95;;;20.40;63.40;;;;;;5023087;28;20025;-78
2023/05/28 08:25:03;;;;;;;28.60;15.85;;;20.70;62.80;;;;;;5019865;28;20484;-78
2023/05/28 08:27:28;;;;;;;26.90;14.90;;;21.00;62.60;;;;;;5023288;28;20030;-77
2023/05/28 08:29:54;;;;;;;23.70;14.40;;;21.10;60.30;;;;;;5019999;28;20033;-77
2023/05/28 08:32:20;;;;;;;25.33;13.25;;;21.30;60.00;;;;;;5022867;28;20428;-78
2023/05/28 08:34:45;;;;;;;20.80;12.00;;;21.60;59.90;;;;;;5023193;28;20471;-79
2023/05/28 08:37:12;;;;;;;25.70;13.50;;;22.00;58.50;;;;;;5019807;28;20053;-78
2023/05/28 08:39:38;;;;;;;25.27;14.70;;;22.20;57.50;;;;;;5022388;28;20029;-80
2023/05/28 08:42:05;;;;;;;22.40;13.65;;;22.00;56.60;;;;;;5021338;28;20082;-78
2023/05/28 08:44:31;;;;;;;20.92;12.00;;;21.80;56.90;;;;;;5027703;28;20032;-79
2023/05/28 08:46:57;;;;;;;23.52;10.48;;;21.80;55.80;;;;;;5024592;28;20041;-80
2023/05/28 08:49:32;;;;;;;18.88;9.50;;;22.10;53.70;;;;;;5025332;28;20685;-78
2023/05/28 08:52:02;;;;;;;15.82;8.50;;;21.70;53.60;;;;;;5027669;28;20045;-77
2023/05/28 08:54:29;;;;;;;21.95;9.07;;;21.80;53.20;;;;;;5025197;28;20500;-78
2023/05/28 08:56:56;;;;;;;17.20;7.72;;;22.20;51.20;;;;;;5027702;28;20049;-76
2023/05/28 08:59:24;;;;;;;15.73;7.57;;;22.10;50.40;;;;;;5024265;28;20021;-78
2023/05/28 09:01:51;;;;;;;15.38;6.88;;;22.10;50.30;;;;;;5023254;28;20065;-76
2023/05/28 09:04:16;;;;;;;16.10;7.82;;;22.10;49.10;;;;;;5027845;28;20048;-76
2023/05/28 09:06:42;;;;;;;15.38;6.55;;;22.00;49.70;;;;;;5019378;28;20041;-79
2023/05/28 09:09:09;;;;;;;12.88;6.75;;;22.20;49.50;;;;;;5026174;28;20029;-77
2023/05/28 09:11:34;;;;;;;12.63;5.68;;;22.60;48.50;;;;;;5022271;28;20359;-80
2023/05/28 09:14:10;;;;;;;14.63;5.93;;;23.30;48.20;;;;;;5020502;28;20512;-78
2023/05/28 09:16:36;;;;;;;18.58;6.82;;;23.20;46.20;;;;;;5025229;28;20083;-77
2023/05/28 09:19:04;;;;;;;14.50;6.60;;;23.00;46.60;;;;;;5019793;28;20474;-79
2023/05/28 09:21:30;;;;;;;16.30;6.63;;;23.10;45.90;;;;;;5021940;28;20253;-76
2023/05/28 09:23:56;;;;;;;15.65;6.20;;;23.00;45.60;;;;;;5024341;28;20021;-76
2023/05/28 09:26:21;;;;;;;14.45;6.03;;;22.60;45.40;;;;;;5019111;28;20040;-78
2023/05/28 09:28:49;;;;;;;16.17;6.03;;;22.60;45.30;;;;;;5018650;28;20489;-78
2023/05/28 09:31:15;;;;;;;13.55;6.70;;;22.70;45.70;;;;;;5023554;28;20168;-77
2023/05/28 09:33:47;;;;;;;13.07;6.40;;;22.90;44.80;;;;;;5025036;28;20349;-75
2023/05/28 09:36:17;;;;;;;17.67;7.03;;;22.90;44.70;;;;;;5019475;28;20056;-78
2023/05/28 09:38:43;;;;;;;14.55;6.32;;;22.90;44.90;;;;;;5018670;28;20025;-77
2023/05/28 09:41:24;;;;;;;18.00;8.07;;;23.00;45.20;;;;;;5020191;28;20037;-78
2023/05/28 09:43:58;;;;;;;18.17;7.35;;;23.30;45.80;;;;;;5023573;28;20028;-76
2023/05/28 09:46:33;;;;;;;;;;;23.60;45.40;;;;;;5023711;28;20498;-78
2023/05/28 09:49:00;;;;;;;16.20;7.00;;;23.80;44.60;;;;;;5018466;28;19909;-76
2023/05/28 09:51:28;;;;;;;18.70;7.97;;;24.10;44.40;;;;;;5019585;28;20099;-77
2023/05/28 09:54:03;;;;;;;16.08;8.63;;;24.30;45.60;;;;;;5021753;28;20025;-76
2023/05/28 09:56:29;;;;;;;;;;;24.30;47.20;;;;;;5019172;28;20041;-77
2023/05/28 09:59:00;;;;;;;19.13;9.27;;;24.10;45.30;;;;;;5020329;28;19948;-76
2023/05/28 10:01:32;;;;;;;17.48;7.53;;;23.80;45.10;;;;;;5020668;28;20025;-76
2023/05/28 10:04:07;;;;;;;16.95;9.00;;;24.00;45.70;;;;;;5023032;28;20123;-75
2023/05/28 10:06:35;;;;;;;15.00;7.90;;;24.10;45.40;;;;;;5020146;28;20047;-76
2023/05/28 10:09:04;;;;;;;18.63;8.10;;;24.10;46.30;;;;;;5022932;28;20048;-76
2023/05/28 10:11:36;;;;;;;13.73;7.50;;;23.90;46.20;;;;;;5022911;28;20211;-75
2023/05/28 10:14:03;;;;;;;15.57;7.20;;;23.50;45.80;;;;;;5010612;28;20483;-76
2023/05/28 10:16:30;;;;;;;15.27;6.82;;;23.50;45.00;;;;;;5022141;28;20040;-77
2023/05/28 10:18:56;;;;;;;14.57;6.65;;;23.60;44.10;;;;;;5025213;28;20021;-77
2023/05/28 10:21:23;;;;;;;15.80;7.20;;;23.50;44.80;;;;;;5024571;28;20029;-76
2023/05/28 10:23:49;;;;;;;16.08;7.40;;;23.60;44.10;;;;;;5019820;28;20022;-76
2023/05/28 10:26:16;;;;;;;16.10;9.27;;;23.60;43.20;;;;;;5024347;28;20135;-76
2023/05/28 10:28:42;;;;;;;16.52;8.80;;;23.40;44.40;;;;;;5018602;28;20080;-78
2023/05/28 10:31:10;;;;;;;15.48;8.13;;;23.60;43.90;;;;;;5021665;28;20529;-76
2023/05/28 10:33:42;;;;;;;17.42;7.97;;;23.60;43.90;;;;;;5022136;28;20022;-76
2023/05/28 10:36:13;;;;;;;15.23;7.22;;;23.70;43.70;;;;;;5018933;28;20052;-76
2023/05/28 10:38:51;;;;;;;14.60;6.75;;;23.90;43.70;;;;;;5024791;28;20014;-75
2023/05/28 10:41:21;;;;;;;14.38;6.75;;;24.20;43.90;;;;;;5021013;28;20073;-79
2023/05/28 10:43:48;;;;;;;13.98;6.88;;;24.40;42.70;;;;;;5026951;28;20014;-79
2023/05/28 10:46:18;;;;;;;14.80;7.07;;;24.10;42.20;;;;;;5027424;28;20038;-77
2023/05/28 10:49:20;;;;;;;13.35;6.18;;;23.90;41.90;;;;;;5017593;28;20032;-78
2023/05/28 10:51:46;;;;;;;13.95;6.20;;;24.20;40.80;;;;;;5025076;28;20029;-78
2023/05/28 10:54:38;;;;;;;14.48;6.28;;;24.50;40.60;;;;;;5022398;28;20029;-76
2023/05/28 10:57:11;;;;;;;13.48;6.60;;;24.80;39.90;;;;;;5011863;28;20076;-77
2023/05/28 10:59:44;;;;;;;14.70;7.57;;;24.10;41.70;;;;;;5019000;28;20025;-76
2023/05/28 11:02:10;;;;;;;14.02;6.80;;;24.00;42.50;;;;;;5021619;28;20038;-76
2023/05/28 11:04:36;;;;;;;15.52;6.90;;;24.40;44.10;;;;;;5012611;28;20029;-76
2023/05/28 11:07:04;;;;;;;17.52;7.55;;;24.70;43.00;;;;;;5014776;28;20054;-76
2023/05/28 11:09:30;;;;;;;17.50;7.05;;;24.60;43.70;;;;;;5018066;28;20037;-77
2023/05/28 11:12:01;;;;;;;16.77;7.63;;;24.60;44.60;;;;;;5018020;28;21875;-77
2023/05/28 11:14:45;;;;;;;14.13;7.78;;;24.50;44.20;;;;;;5015517;28;20489;-75
2023/05/28 11:17:12;;;;;;;19.48;8.95;;;24.80;44.40;;;;;;5017140;28;20045;-76
2023/05/28 11:19:51;;;;;;;15.85;7.90;;;24.30;44.00;;;;;;5016530;28;20543;-76
2023/05/28 11:22:18;;;;;;;17.27;8.35;;;24.40;43.70;;;;;;5012749;28;20394;-76
2023/05/28 11:24:59;;;;;;;19.13;8.80;;;24.00;43.80;;;;;;5017185;28;20032;-76
2023/05/28 11:27:31;;;;;;;15.38;7.85;;;23.60;43.80;;;;;;5017022;28;20425;-76
2023/05/28 11:29:59;;;;;;;16.83;8.23;;;23.80;42.90;;;;;;5020901;28;20091;-76
2023/05/28 11:32:31;;;;;;;16.88;8.18;;;23.80;44.10;;;;;;5019035;28;20037;-76
2023/05/28 11:34:57;;;;;;;13.40;7.72;;;24.30;45.20;;;;;;5019968;28;20044;-76
2023/05/28 11:37:34;;;;;;;15.77;8.20;;;24.30;43.40;;;;;;5014646;28;20093;-76
2023/05/28 11:40:05;;;;;;;16.85;7.55;;;24.30;42.20;;;;;;5017606;28;20030;-77
2023/05/28 11:42:31;;;;;;;13.70;7.63;;;24.50;43.10;;;;;;5014896;28;20033;-76
2023/05/28 11:44:57;;;;;;;13.73;7.38;;;24.30;41.10;;;;;;5020375;28;20078;-77
2023/05/28 11:47:24;;;;;;;15.38;7.18;;;24.40;43.60;;;;;;5018813;28;20035;-76
2023/05/28 11:49:50;;;;;;;15.65;7.82;;;24.30;43.70;;;;;;5020928;28;20032;-77
2023/05/28 11:52:23;;;;;;;13.88;7.25;;;24.30;44.30;;;;;;5020154;28;20140;-77
2023/05/28 11:54:53;;;;;;;18.45;7.18;;;24.40;45.40;;;;;;5021789;28;20175;-78
2023/05/28 11:57:27;;;;;;;13.38;7.18;;;24.70;42.70;;;;;;5017252;28;20050;-77
2023/05/28 12:00:25;;;;;;;17.03;7.93;;;24.50;44.40;;;;;;5022920;28;20152;-76
2023/05/28 12:02:53;;;;;;;15.45;7.15;;;24.60;43.90;;;;;;5021779;28;20107;-77
2023/05/28 12:05:20;;;;;;;17.60;7.40;;;24.50;45.00;;;;;;5019109;28;20029;-77
2023/05/28 12:07:46;;;;;;;16.92;7.63;;;24.40;44.30;;;;;;5021688;28;20030;-77
2023/05/28 12:10:14;;;;;;;15.05;7.47;;;24.30;44.70;;;;;;5021481;28;20081;-79
2023/05/28 12:12:45;;;;;;;18.42;7.93;;;24.40;44.40;;;;;;5022710;28;20053;-77
2023/05/28 12:15:11;;;;;;;16.30;7.85;;;24.40;43.40;;;;;;5020251;28;20120;-78
2023/05/28 12:17:41;;;;;;;17.80;8.23;;;24.30;44.00;;;;;;5025513;28;20663;-75
2023/05/28 12:20:12;;;;;;;14.82;6.88;;;24.50;43.10;;;;;;5026105;28;20034;-77
2023/05/28 12:22:38;;;;;;;13.90;6.80;;;24.50;43.00;;;;;;5022955;28;20034;-77
2023/05/28 12:25:06;;;;;;;12.57;6.70;;;24.50;43.60;;;;;;5024490;28;20590;-76
2023/05/28 12:27:32;;;;;;;16.25;7.40;;;24.80;42.70;;;;;;5025429;28;20033;-76
2023/05/28 12:29:58;;;;;;;17.08;7.10;;;24.60;41.00;;;;;;5025558;28;20052;-76